createdAt,value
2017-04-07T00:00:49.445Z,75.96
2017-04-07T00:01:49.468Z,76.16
2017-04-07T00:02:49.406Z,75.96
2017-04-07T00:03:49.387Z,76.54
2017-04-07T00:04:49.352Z,75.68
2017-04-07T00:05:49.378Z,75.87
2017-04-07T00:06:49.305Z,75.68
2017-04-07T00:07:49.331Z,75.64
2017-04-07T00:08:49.258Z,75.78
2017-04-07T00:09:49.234Z,76.5
2017-04-07T00:10:49.212Z,76.97
2017-04-07T00:11:49.190Z,76.59
2017-04-07T00:12:49.162Z,77.07
2017-04-07T00:13:49.141Z,76.78
2017-04-07T00:14:49.112Z,76.59
2017-04-07T00:15:49.093Z,77.07
2017-04-07T00:16:49.064Z,77.07
2017-04-07T00:17:49.040Z,77.07
2017-04-07T00:18:49.017Z,77.26
2017-04-07T00:19:50.002Z,76.88
2017-04-07T00:20:49.022Z,77.17
2017-04-07T00:21:48.950Z,77.83
2017-04-07T00:22:48.924Z,77.79
2017-04-07T00:23:48.903Z,77.22
2017-04-07T00:24:48.873Z,78.27
2017-04-07T00:25:48.853Z,78.36
2017-04-07T00:26:48.827Z,78.17
2017-04-07T00:27:48.808Z,78.64
2017-04-07T00:28:48.778Z,78.64
2017-04-07T00:29:48.758Z,78.93
2017-04-07T00:30:48.734Z,79.22
2017-04-07T00:31:48.711Z,78.93
2017-04-07T00:32:48.682Z,78.83
2017-04-07T00:33:48.663Z,79.31
2017-04-07T00:34:48.640Z,79.31
2017-04-07T00:35:48.616Z,79.88
2017-04-07T00:36:48.589Z,79.97
2017-04-07T00:37:48.563Z,79.88
2017-04-07T00:38:48.538Z,79.65
2017-04-07T00:39:48.567Z,79.84
2017-04-07T00:40:48.496Z,80.22
2017-04-07T00:41:48.477Z,80.03
2017-04-07T00:42:48.448Z,79.84
2017-04-07T00:43:48.423Z,79.94
2017-04-07T00:44:48.397Z,80.69
2017-04-07T00:45:48.372Z,80.69
2017-04-07T00:46:48.059Z,80.6
2017-04-07T00:47:48.329Z,80.6
2017-04-07T00:48:48.303Z,80.6
2017-04-07T00:49:48.276Z,80.79
2017-04-07T00:50:48.254Z,80.79
2017-04-07T00:51:48.227Z,81.26
2017-04-07T00:52:48.205Z,80.98
2017-04-07T00:53:48.177Z,81.26
2017-04-07T00:54:48.157Z,81.07
2017-04-07T00:55:48.132Z,81.17
2017-04-07T00:56:48.109Z,81.17
2017-04-07T00:57:48.085Z,81.17
2017-04-07T00:58:48.060Z,81.36
2017-04-07T00:59:48.044Z,81.84
2017-04-07T01:00:48.014Z,81.65
2017-04-07T01:01:47.989Z,81.74
2017-04-07T01:02:47.961Z,81.84
2017-04-07T01:03:47.994Z,81.65
2017-04-07T01:04:47.915Z,81.36
2017-04-07T01:05:47.890Z,82.12
2017-04-07T01:06:47.917Z,81.93
2017-04-07T01:07:47.847Z,82.12
2017-04-07T01:08:47.819Z,81.93
2017-04-07T01:09:47.791Z,82.12
2017-04-07T01:10:47.771Z,82.03
2017-04-07T01:11:47.750Z,82.03
2017-04-07T01:12:47.723Z,82.03
2017-04-07T01:13:47.701Z,82.21
2017-04-07T01:14:47.675Z,82.5
2017-04-07T01:15:47.647Z,82.12
2017-04-07T01:16:47.625Z,82.59
2017-04-07T01:17:47.597Z,82.59
2017-04-07T01:18:47.285Z,82.5
2017-04-07T01:19:47.557Z,82.4
2017-04-07T01:20:47.530Z,82.69
2017-04-07T01:21:47.502Z,83.07
2017-04-07T01:22:47.478Z,83.16
2017-04-07T01:23:47.154Z,82.97
2017-04-07T01:24:47.428Z,83.26
2017-04-07T01:25:47.410Z,83.26
2017-04-07T01:26:47.384Z,82.88
2017-04-07T01:27:47.354Z,83.16
2017-04-07T01:28:47.331Z,83.45
2017-04-07T01:29:47.306Z,83.16
2017-04-07T01:30:47.290Z,83.26
2017-04-07T01:31:47.262Z,82.97
2017-04-07T01:32:47.235Z,82.97
2017-04-07T01:33:47.210Z,83.64
2017-04-07T01:34:47.188Z,83.64
2017-04-07T01:35:47.773Z,83.83
2017-04-07T01:36:46.837Z,83.83
2017-04-07T01:37:47.114Z,83.83
2017-04-07T01:38:47.098Z,84.01
2017-04-07T01:39:47.070Z,84.4
2017-04-07T01:40:47.049Z,84.21
2017-04-07T01:41:47.066Z,84.21
2017-04-07T01:42:46.988Z,84.01
2017-04-07T01:43:46.965Z,83.73
2017-04-07T01:44:46.947Z,83.83
2017-04-07T01:45:46.973Z,83.73
2017-04-07T01:46:46.896Z,84.01
2017-04-07T01:47:47.621Z,83.64
2017-04-07T01:48:46.849Z,83.45
2017-04-07T01:49:46.824Z,83.92
2017-04-07T01:50:46.807Z,83.73
2017-04-07T01:51:46.777Z,82.82
2017-04-07T01:52:46.444Z,83.16
2017-04-07T01:53:46.725Z,83.16
2017-04-07T01:54:46.699Z,83.11
2017-04-07T01:55:46.679Z,82.82
2017-04-07T01:56:46.651Z,83.01
2017-04-07T01:57:46.331Z,83.11
2017-04-07T01:58:46.607Z,82.82
2017-04-07T01:59:46.578Z,83.01
2017-04-07T02:00:46.565Z,83.2
2017-04-07T02:01:46.534Z,83.01
2017-04-07T02:02:46.510Z,82.82
2017-04-07T02:03:46.481Z,82.73
2017-04-07T02:04:46.470Z,82.54
2017-04-07T02:05:46.437Z,82.82
2017-04-07T02:06:46.412Z,82.73
2017-04-07T02:07:46.388Z,82.16
2017-04-07T02:08:46.369Z,82.45
2017-04-07T02:09:46.341Z,82.54
2017-04-07T02:10:46.327Z,82.26
2017-04-07T02:11:46.294Z,82.35
2017-04-07T02:12:46.272Z,82.45
2017-04-07T02:13:46.242Z,82.07
2017-04-07T02:14:46.256Z,82.16
2017-04-07T02:15:46.200Z,82.16
2017-04-07T02:16:46.173Z,82.16
2017-04-07T02:17:46.154Z,82.26
2017-04-07T02:18:46.126Z,82.26
2017-04-07T02:19:46.106Z,82.26
2017-04-07T02:20:46.076Z,82.07
2017-04-07T02:21:46.054Z,82.07
2017-04-07T02:22:46.033Z,81.97
2017-04-07T02:23:46.005Z,82.07
2017-04-07T02:24:46.008Z,82.07
2017-04-07T02:25:45.959Z,82.07
2017-04-07T02:26:45.935Z,82.16
2017-04-07T02:27:45.913Z,82.16
2017-04-07T02:28:45.897Z,82.16
2017-04-07T02:29:45.864Z,82.07
2017-04-07T02:30:45.540Z,82.07
2017-04-07T02:31:45.819Z,82.07
2017-04-07T02:32:45.490Z,82.16
2017-04-07T02:33:45.771Z,82.16
2017-04-07T02:34:45.746Z,82.07
2017-04-07T02:35:45.722Z,82.16
2017-04-07T02:36:45.748Z,82.35
2017-04-07T02:37:45.675Z,82.16
2017-04-07T02:38:45.652Z,82.16
2017-04-07T02:39:45.625Z,82.2
2017-04-07T02:40:45.605Z,82.07
2017-04-07T02:41:45.588Z,82.45
2017-04-07T02:42:45.559Z,82.07
2017-04-07T02:43:45.536Z,82.2
2017-04-07T02:44:45.521Z,82.54
2017-04-07T02:45:45.486Z,82.29
2017-04-07T02:46:45.513Z,82.45
2017-04-07T02:47:45.439Z,82.29
2017-04-07T02:48:45.418Z,82.39
2017-04-07T02:49:45.395Z,82.29
2017-04-07T02:50:45.369Z,82.29
2017-04-07T02:51:45.349Z,82.49
2017-04-07T02:52:45.016Z,82.29
2017-04-07T02:53:45.310Z,82.49
2017-04-07T02:54:45.274Z,82.29
2017-04-07T02:55:45.249Z,82.2
2017-04-07T02:56:45.227Z,82.16
2017-04-07T02:57:45.207Z,82.29
2017-04-07T02:58:45.183Z,82.49
2017-04-07T02:59:45.157Z,82.39
2017-04-07T03:00:45.389Z,82.29
2017-04-07T03:01:45.115Z,82.2
2017-04-07T03:02:45.093Z,82.2
2017-04-07T03:03:45.065Z,82.49
2017-04-07T03:04:45.035Z,82.29
2017-04-07T03:05:45.013Z,82.58
2017-04-07T03:06:44.994Z,82.39
2017-04-07T03:07:44.969Z,82.2
2017-04-07T03:08:44.941Z,82.2
2017-04-07T03:09:44.919Z,82.01
2017-04-07T03:10:44.903Z,81.92
2017-04-07T03:11:44.876Z,81.92
2017-04-07T03:12:44.855Z,81.73
2017-04-07T03:13:44.836Z,81.92
2017-04-07T03:14:44.806Z,81.54
2017-04-07T03:15:44.782Z,81.82
2017-04-07T03:16:44.758Z,81.35
2017-04-07T03:17:44.736Z,81.35
2017-04-07T03:18:44.759Z,81.25
2017-04-07T03:19:44.684Z,80.68
2017-04-07T03:20:44.363Z,80.77
2017-04-07T03:21:44.644Z,81.16
2017-04-07T03:22:44.617Z,81.16
2017-04-07T03:23:44.291Z,81.16
2017-04-07T03:24:44.567Z,80.68
2017-04-07T03:25:44.547Z,80.58
2017-04-07T03:26:44.518Z,80.49
2017-04-07T03:27:44.496Z,80.49
2017-04-07T03:28:44.475Z,80.68
2017-04-07T03:29:44.452Z,80.02
2017-04-07T03:30:44.423Z,80.11
2017-04-07T03:31:44.103Z,80.4
2017-04-07T03:32:44.087Z,80.21
2017-04-07T03:33:44.355Z,80.3
2017-04-07T03:34:44.334Z,80.02
2017-04-07T03:35:44.315Z,79.92
2017-04-07T03:36:44.286Z,79.83
2017-04-07T03:37:44.312Z,79.92
2017-04-07T03:38:44.248Z,79.35
2017-04-07T03:39:44.216Z,79.25
2017-04-07T03:40:44.196Z,79.83
2017-04-07T03:41:45.116Z,79.54
2017-04-07T03:42:44.148Z,79.83
2017-04-07T03:43:44.121Z,79.73
2017-04-07T03:44:44.102Z,79.35
2017-04-07T03:45:44.073Z,79.25
2017-04-07T03:46:44.049Z,79.06
2017-04-07T03:47:44.035Z,78.97
2017-04-07T03:48:44.009Z,78.97
2017-04-07T03:49:43.984Z,79.25
2017-04-07T03:50:43.964Z,79.16
2017-04-07T03:51:43.949Z,78.97
2017-04-07T03:52:43.919Z,79.06
2017-04-07T03:53:43.885Z,78.97
2017-04-07T03:54:43.896Z,78.5
2017-04-07T03:55:43.895Z,78.69
2017-04-07T03:56:43.818Z,78.69
2017-04-07T03:57:43.794Z,78.59
2017-04-07T03:58:43.819Z,78.02
2017-04-07T03:59:43.753Z,78.11
2017-04-07T04:00:43.423Z,78.11
2017-04-07T04:01:43.751Z,78.21
2017-04-07T04:02:43.678Z,78.3
2017-04-07T04:03:43.652Z,78.5
2017-04-07T04:04:43.631Z,78.4
2017-04-07T04:05:43.611Z,78.3
2017-04-07T04:06:43.279Z,78.5
2017-04-07T04:07:43.561Z,78.21
2017-04-07T04:08:43.535Z,78.5
2017-04-07T04:09:43.563Z,78.4
2017-04-07T04:10:43.492Z,78.4
2017-04-07T04:11:43.463Z,78.11
2017-04-07T04:12:43.464Z,78.4
2017-04-07T04:13:44.069Z,78.69
2017-04-07T04:14:43.393Z,78.91
2017-04-07T04:15:43.076Z,78.78
2017-04-07T04:16:43.345Z,78.78
2017-04-07T04:17:43.329Z,79.06
2017-04-07T04:18:43.300Z,79.11
2017-04-07T04:19:43.279Z,78.91
2017-04-07T04:20:43.258Z,78.82
2017-04-07T04:21:43.230Z,78.97
2017-04-07T04:22:43.211Z,79.11
2017-04-07T04:23:43.184Z,78.97
2017-04-07T04:24:43.161Z,78.88
2017-04-07T04:25:43.139Z,79.16
2017-04-07T04:26:43.118Z,79.16
2017-04-07T04:27:43.089Z,78.97
2017-04-07T04:28:42.818Z,79.25
2017-04-07T04:29:43.045Z,78.88
2017-04-07T04:30:43.018Z,79.06
2017-04-07T04:31:42.997Z,79.06
2017-04-07T04:32:42.975Z,79.06
2017-04-07T04:33:42.951Z,79.06
2017-04-07T04:34:42.928Z,79.06
2017-04-07T04:35:42.904Z,78.97
2017-04-07T04:36:42.883Z,79.16
2017-04-07T04:37:42.861Z,79.06
2017-04-07T04:38:42.830Z,79.06
2017-04-07T04:39:42.811Z,79.06
2017-04-07T04:40:42.790Z,79.06
2017-04-07T04:41:42.760Z,79.16
2017-04-07T04:42:42.745Z,78.88
2017-04-07T04:43:42.722Z,79.25
2017-04-07T04:44:42.693Z,79.06
2017-04-07T04:45:42.673Z,79.35
2017-04-07T04:46:42.652Z,79.73
2017-04-07T04:47:42.627Z,79.44
2017-04-07T04:48:42.600Z,79.06
2017-04-07T04:49:42.606Z,79.54
2017-04-07T04:50:42.553Z,79.44
2017-04-07T04:51:42.533Z,79.44
2017-04-07T04:52:42.511Z,79.35
2017-04-07T04:53:42.481Z,79.92
2017-04-07T04:54:42.460Z,79.35
2017-04-07T04:55:42.439Z,79.92
2017-04-07T04:56:42.419Z,79.83
2017-04-07T04:57:42.401Z,79.92
2017-04-07T04:58:42.369Z,79.35
2017-04-07T04:59:42.346Z,79.63
2017-04-07T05:00:42.327Z,79.83
2017-04-07T05:01:42.300Z,79.83
2017-04-07T05:02:42.275Z,79.73
2017-04-07T05:03:42.250Z,79.63
2017-04-07T05:04:42.238Z,79.63
2017-04-07T05:05:42.209Z,79.86
2017-04-07T05:06:41.876Z,79.25
2017-04-07T05:07:42.159Z,79.35
2017-04-07T05:08:42.135Z,79.58
2017-04-07T05:09:42.110Z,79.83
2017-04-07T05:10:42.091Z,79.77
2017-04-07T05:11:42.064Z,79.86
2017-04-07T05:12:42.040Z,79.35
2017-04-07T05:13:42.013Z,79.16
2017-04-07T05:14:41.997Z,79.11
2017-04-07T05:15:41.974Z,79.11
2017-04-07T05:16:41.946Z,79.01
2017-04-07T05:17:41.924Z,79.2
2017-04-07T05:18:41.904Z,78.91
2017-04-07T05:19:41.885Z,79.01
2017-04-07T05:20:41.853Z,79.01
2017-04-07T05:21:41.830Z,79.01
2017-04-07T05:22:41.807Z,78.91
2017-04-07T05:23:41.784Z,79.11
2017-04-07T05:24:41.766Z,79.11
2017-04-07T05:25:41.743Z,78.91
2017-04-07T05:26:41.718Z,79.11
2017-04-07T05:27:41.690Z,79.01
2017-04-07T05:28:41.671Z,78.91
2017-04-07T05:29:41.647Z,79.11
2017-04-07T05:30:41.622Z,79.11
2017-04-07T05:31:41.596Z,78.63
2017-04-07T05:32:41.573Z,78.53
2017-04-07T05:33:41.552Z,78.72
2017-04-07T05:34:41.530Z,78.72
2017-04-07T05:35:41.501Z,78.72
2017-04-07T05:36:41.478Z,78.91
2017-04-07T05:37:41.460Z,78.72
2017-04-07T05:38:41.433Z,79.01
2017-04-07T05:39:41.418Z,78.82
2017-04-07T05:40:41.387Z,78.63
2017-04-07T05:41:41.370Z,78.82
2017-04-07T05:42:41.339Z,78.72
2017-04-07T05:43:41.317Z,78.72
2017-04-07T05:44:41.294Z,78.25
2017-04-07T05:45:41.273Z,78.25
2017-04-07T05:46:41.247Z,78.06
2017-04-07T05:47:41.229Z,78.44
2017-04-07T05:48:41.200Z,78.44
2017-04-07T05:49:41.192Z,78.16
2017-04-07T05:50:41.405Z,78.16
2017-04-07T05:51:41.131Z,78.44
2017-04-07T05:52:41.110Z,78.06
2017-04-07T05:53:41.086Z,77.77
2017-04-07T05:54:41.114Z,78.16
2017-04-07T05:55:41.092Z,78.06
2017-04-07T05:56:40.713Z,77.77
2017-04-07T05:57:40.992Z,77.77
2017-04-07T05:58:40.976Z,77.58
2017-04-07T05:59:40.950Z,77.97
2017-04-07T06:00:40.931Z,78.06
2017-04-07T06:01:40.906Z,78.06
2017-04-07T06:02:40.877Z,77.58
2017-04-07T06:03:40.865Z,77.77
2017-04-07T06:04:40.832Z,77.87
2017-04-07T06:05:40.807Z,77.68
2017-04-07T06:06:40.796Z,77.72
2017-04-07T06:07:40.765Z,77.91
2017-04-07T06:08:40.739Z,77.81
2017-04-07T06:09:40.767Z,77.3
2017-04-07T06:10:41.803Z,77.43
2017-04-07T06:11:40.669Z,77.05
2017-04-07T06:12:40.654Z,76.76
2017-04-07T06:13:40.633Z,77.24
2017-04-07T06:14:40.304Z,77.05
2017-04-07T06:15:40.581Z,77.11
2017-04-07T06:16:40.564Z,77.24
2017-04-07T06:17:40.536Z,77.15
2017-04-07T06:18:40.505Z,77.15
2017-04-07T06:19:40.489Z,77.05
2017-04-07T06:20:40.470Z,77.34
2017-04-07T06:21:40.444Z,77.15
2017-04-07T06:22:40.420Z,77.24
2017-04-07T06:23:40.398Z,77.15
2017-04-07T06:24:40.376Z,77.05
2017-04-07T06:25:40.349Z,77.34
2017-04-07T06:26:40.331Z,77.43
2017-04-07T06:27:40.307Z,76.86
2017-04-07T06:28:40.286Z,77.34
2017-04-07T06:29:40.260Z,77.05
2017-04-07T06:30:40.268Z,77.34
2017-04-07T06:31:40.220Z,76.67
2017-04-07T06:32:40.200Z,76.67
2017-04-07T06:33:40.173Z,76.76
2017-04-07T06:34:40.145Z,76.67
2017-04-07T06:35:40.158Z,76.76
2017-04-07T06:36:40.102Z,76.48
2017-04-07T06:37:40.081Z,76.48
2017-04-07T06:38:40.055Z,76.29
2017-04-07T06:39:40.033Z,76.39
2017-04-07T06:40:40.008Z,76.29
2017-04-07T06:41:39.987Z,76.52
2017-04-07T06:42:39.972Z,76.71
2017-04-07T06:43:39.944Z,76.48
2017-04-07T06:44:39.924Z,76.71
2017-04-07T06:45:39.898Z,76.71
2017-04-07T06:46:39.878Z,76.23
2017-04-07T06:47:39.860Z,76.42
2017-04-07T06:48:39.833Z,75.95
2017-04-07T06:49:39.504Z,75.95
2017-04-07T06:50:39.790Z,75.85
2017-04-07T06:51:39.761Z,75.95
2017-04-07T06:52:39.742Z,75.67
2017-04-07T06:53:39.720Z,76.04
2017-04-07T06:54:39.696Z,76.04
2017-04-07T06:55:39.674Z,75.95
2017-04-07T06:56:39.661Z,76.04
2017-04-07T06:57:39.632Z,76.14
2017-04-07T06:58:39.610Z,76.04
2017-04-07T06:59:39.584Z,75.85
2017-04-07T07:00:39.564Z,75.95
2017-04-07T07:01:39.540Z,75.76
2017-04-07T07:02:39.518Z,75.95
2017-04-07T07:03:39.501Z,75.76
2017-04-07T07:04:39.476Z,75.47
2017-04-07T07:05:39.449Z,75.67
2017-04-07T07:06:39.435Z,75.85
2017-04-07T07:07:39.411Z,75.67
2017-04-07T07:08:39.393Z,75.47
2017-04-07T07:09:39.368Z,75.67
2017-04-07T07:10:39.336Z,75.47
2017-04-07T07:11:39.319Z,75.67
2017-04-07T07:12:39.452Z,75.38
2017-04-07T07:13:39.277Z,75.67
2017-04-07T07:14:39.251Z,75.47
2017-04-07T07:15:39.229Z,75.47
2017-04-07T07:16:39.212Z,75.57
2017-04-07T07:17:39.181Z,75.76
2017-04-07T07:18:39.158Z,75.19
2017-04-07T07:19:39.142Z,75.47
2017-04-07T07:20:38.818Z,75.38
2017-04-07T07:21:39.098Z,75.38
2017-04-07T07:22:39.082Z,75.57
2017-04-07T07:23:39.054Z,75.76
2017-04-07T07:24:39.028Z,75.85
2017-04-07T07:25:39.007Z,75.85
2017-04-07T07:26:38.684Z,75.47
2017-04-07T07:27:38.972Z,75.67
2017-04-07T07:28:38.942Z,75.57
2017-04-07T07:29:38.668Z,76.04
2017-04-07T07:30:38.900Z,75.85
2017-04-07T07:31:38.872Z,76.04
2017-04-07T07:32:38.850Z,75.67
2017-04-07T07:33:38.830Z,75.47
2017-04-07T07:34:38.808Z,75.67
2017-04-07T07:35:38.783Z,75.67
2017-04-07T07:36:38.766Z,75.51
2017-04-07T07:37:38.741Z,75.47
2017-04-07T07:38:38.805Z,75.47
2017-04-07T07:39:38.697Z,76.14
2017-04-07T07:40:38.674Z,76.04
2017-04-07T07:41:38.354Z,76.04
2017-04-07T07:42:38.627Z,76.04
2017-04-07T07:43:38.604Z,75.76
2017-04-07T07:44:40.341Z,76.04
2017-04-07T07:45:38.580Z,76.14
2017-04-07T07:46:38.548Z,76.04
2017-04-07T07:47:38.516Z,75.79
2017-04-07T07:48:38.506Z,75.6
2017-04-07T07:49:38.483Z,75.6
2017-04-07T07:50:38.165Z,75.89
2017-04-07T07:51:38.444Z,75.42
2017-04-07T07:52:38.413Z,75.23
2017-04-07T07:53:38.393Z,74.94
2017-04-07T07:54:38.366Z,75.13
2017-04-07T07:55:38.396Z,75.07
2017-04-07T07:56:38.322Z,74.79
2017-04-07T07:57:38.304Z,74.69
2017-04-07T07:58:38.286Z,74.31
2017-04-07T07:59:38.263Z,74.5
2017-04-07T08:00:38.239Z,74.69
2017-04-07T08:01:38.212Z,73.83
2017-04-07T08:02:38.199Z,74.12
2017-04-07T08:03:37.867Z,73.45
2017-04-07T08:04:38.144Z,73.83
2017-04-07T08:05:37.828Z,73.65
2017-04-07T08:06:38.106Z,73.74
2017-04-07T08:07:38.084Z,73.55
2017-04-07T08:08:38.070Z,73.65
2017-04-07T08:09:38.039Z,73.87
2017-04-07T08:10:38.023Z,73.68
2017-04-07T08:11:37.997Z,72.72
2017-04-07T08:12:37.972Z,73.49
2017-04-07T08:13:37.962Z,73.49
2017-04-07T08:14:37.940Z,72.72
2017-04-07T08:15:37.919Z,73.21
2017-04-07T08:16:37.893Z,72.72
2017-04-07T08:17:52.476Z,73.01
2017-04-07T08:18:37.848Z,72.92
2017-04-07T08:19:37.522Z,72.92
2017-04-07T08:20:37.805Z,72.82
2017-04-07T08:21:37.485Z,73.49
2017-04-07T08:22:37.776Z,72.92
2017-04-07T08:23:37.741Z,73.01
2017-04-07T08:24:37.718Z,73.21
2017-04-07T08:25:37.703Z,72.82
2017-04-07T08:26:37.683Z,73.21
2017-04-07T08:27:37.662Z,73.49
2017-04-07T08:28:37.642Z,72.92
2017-04-07T08:29:37.615Z,73.11
2017-04-07T08:30:37.600Z,73.55
2017-04-07T08:31:37.638Z,73.65
2017-04-07T08:32:37.551Z,73.77
2017-04-07T08:33:37.530Z,73.68
2017-04-07T08:34:37.507Z,73.68
2017-04-07T08:35:37.503Z,73.49
2017-04-07T08:36:37.465Z,73.49
2017-04-07T08:37:37.448Z,73.96
2017-04-07T08:38:37.116Z,73.96
2017-04-07T08:39:37.401Z,73.68
2017-04-07T08:40:37.380Z,73.21
2017-04-07T08:41:37.360Z,73.11
2017-04-07T08:42:37.365Z,73.39
2017-04-07T08:43:37.314Z,73.11
2017-04-07T08:44:37.303Z,73.01
2017-04-07T08:45:37.273Z,72.92
2017-04-07T08:46:37.252Z,73.11
2017-04-07T08:47:37.229Z,73.11
2017-04-07T08:48:37.210Z,73.58
2017-04-07T08:49:37.189Z,73.24
2017-04-07T08:50:37.166Z,73.24
2017-04-07T08:51:37.149Z,72.57
2017-04-07T08:52:37.123Z,72.67
2017-04-07T08:53:37.904Z,72.44
2017-04-07T08:54:37.081Z,72.72
2017-04-07T08:55:37.066Z,72.63
2017-04-07T08:56:37.041Z,72.92
2017-04-07T08:57:37.225Z,73.58
2017-04-07T08:58:37.003Z,73.39
2017-04-07T08:59:36.981Z,73.01
2017-04-07T09:00:37.638Z,73.01
2017-04-07T09:01:36.936Z,72.92
2017-04-07T09:02:36.966Z,72.82
2017-04-07T09:03:36.892Z,73.43
2017-04-07T09:04:36.962Z,73.21
2017-04-07T09:05:36.854Z,72.53
2017-04-07T09:06:36.836Z,72.76
2017-04-07T09:07:36.811Z,72.48
2017-04-07T09:08:36.785Z,72.76
2017-04-07T09:09:36.764Z,72.48
2017-04-07T09:10:36.750Z,72.19
2017-04-07T09:11:36.727Z,72.19
2017-04-07T09:12:36.703Z,72.48
2017-04-07T09:13:36.699Z,72.57
2017-04-07T09:14:36.669Z,72.76
2017-04-07T09:15:36.639Z,72.19
2017-04-07T09:16:36.625Z,71.52
2017-04-07T09:17:36.600Z,71.62
2017-04-07T09:18:36.593Z,72.19
2017-04-07T09:19:36.563Z,72
2017-04-07T09:20:36.542Z,72.48
2017-04-07T09:21:36.518Z,72.48
2017-04-07T09:22:36.496Z,72.48
2017-04-07T09:23:36.475Z,72.76
2017-04-07T09:24:36.466Z,72.67
2017-04-07T09:25:36.434Z,72.67
2017-04-07T09:26:36.410Z,72.86
2017-04-07T09:27:36.451Z,72.86
2017-04-07T09:28:36.370Z,72.19
2017-04-07T09:29:36.350Z,71.84
2017-04-07T09:30:36.323Z,71.75
2017-04-07T09:31:36.356Z,71.56
2017-04-07T09:32:36.289Z,71.37
2017-04-07T09:33:36.758Z,71.46
2017-04-07T09:34:36.244Z,70.7
2017-04-07T09:35:36.233Z,70.03
2017-04-07T09:36:36.203Z,70.32
2017-04-07T09:37:36.181Z,70.16
2017-04-07T09:38:36.165Z,70.51
2017-04-07T09:39:36.146Z,70.16
2017-04-07T09:40:36.170Z,70.54
2017-04-07T09:41:36.103Z,70.36
2017-04-07T09:42:36.088Z,70.54
2017-04-07T09:43:36.062Z,69.78
2017-04-07T09:44:36.041Z,69.97
2017-04-07T09:45:36.022Z,69.87
2017-04-07T09:46:35.997Z,69.87
2017-04-07T09:47:35.978Z,69.31
2017-04-07T09:48:35.957Z,69.49
2017-04-07T09:49:35.939Z,68.92
2017-04-07T09:50:35.919Z,69.21
2017-04-07T09:51:35.948Z,69.11
2017-04-07T09:52:35.880Z,69.11
2017-04-07T09:53:35.854Z,69.02
2017-04-07T09:54:35.854Z,68.54
2017-04-07T09:55:35.815Z,68.57
2017-04-07T09:56:35.798Z,67.65
2017-04-07T09:57:35.781Z,67.21
2017-04-07T09:58:35.759Z,64.75
2017-04-07T09:59:35.741Z,62.9
2017-04-07T10:00:35.727Z,61.11
2017-04-07T10:01:35.698Z,59.16
2017-04-07T10:02:35.687Z,58.04
2017-04-07T10:03:35.366Z,56.44
2017-04-07T10:04:35.650Z,55.34
2017-04-07T10:05:35.679Z,54.09
2017-04-07T10:06:35.615Z,52.1
2017-04-07T10:07:35.604Z,51.93
2017-04-07T10:08:35.587Z,50.3
2017-04-07T10:09:35.573Z,49.17
2017-04-07T10:10:35.555Z,48.57
2017-04-07T10:11:35.543Z,48.47
2017-04-07T10:12:35.522Z,48.38
2017-04-07T10:13:35.512Z,48.02
2017-04-07T10:14:35.504Z,47.13
2017-04-07T10:15:35.484Z,47.31
2017-04-07T10:16:35.479Z,47.51
2017-04-07T10:17:35.456Z,48.35
2017-04-07T10:18:35.442Z,48.54
2017-04-07T10:19:35.450Z,49.1
2017-04-07T10:20:35.410Z,50.23
2017-04-07T10:21:35.401Z,50.32
2017-04-07T10:22:35.387Z,50.29
2017-04-07T10:23:35.374Z,50.96
2017-04-07T10:24:35.360Z,51.71
2017-04-07T10:25:35.345Z,52.45
2017-04-07T10:26:35.335Z,53.19
2017-04-07T10:27:35.315Z,54.79
2017-04-07T10:28:35.299Z,55.65
2017-04-07T10:29:35.286Z,55.65
2017-04-07T10:30:35.266Z,55.91
2017-04-07T10:31:35.251Z,56.1
2017-04-07T10:32:34.931Z,56.2
2017-04-07T10:33:35.224Z,56.52
2017-04-07T10:34:35.199Z,57.09
2017-04-07T10:35:35.238Z,57.35
2017-04-07T10:36:35.171Z,57.26
2017-04-07T10:37:35.189Z,57.64
2017-04-07T10:38:35.134Z,57.35
2017-04-07T10:39:35.119Z,57.38
2017-04-07T10:40:35.106Z,57.64
2017-04-07T10:41:35.091Z,58.31
2017-04-07T10:42:35.075Z,58.66
2017-04-07T10:43:35.057Z,59.88
2017-04-07T10:44:35.035Z,60.26
2017-04-07T10:45:35.017Z,60.9
2017-04-07T10:46:34.995Z,61.19
2017-04-07T10:47:34.979Z,61.09
2017-04-07T10:48:34.676Z,61.76
2017-04-07T10:49:34.939Z,61.28
2017-04-07T10:50:34.928Z,61.51
2017-04-07T10:51:34.898Z,60.83
2017-04-07T10:52:34.881Z,60.93
2017-04-07T10:53:34.918Z,60.74
2017-04-07T10:54:34.845Z,60.64
2017-04-07T10:55:34.828Z,60.83
2017-04-07T10:56:34.811Z,61.02
2017-04-07T10:57:34.788Z,60.45
2017-04-07T10:58:35.420Z,60.38
2017-04-07T10:59:34.750Z,60.45
2017-04-07T11:00:34.792Z,60.19
2017-04-07T11:01:34.714Z,60.29
2017-04-07T11:02:34.696Z,59.91
2017-04-07T11:03:34.678Z,60.16
2017-04-07T11:04:34.656Z,60.26
2017-04-07T11:05:34.647Z,60.74
2017-04-07T11:06:34.622Z,60.86
2017-04-07T11:07:34.601Z,60.93
2017-04-07T11:08:34.583Z,60.83
2017-04-07T11:09:34.568Z,61.12
2017-04-07T11:10:35.840Z,60.64
2017-04-07T11:11:34.222Z,60.93
2017-04-07T11:12:34.506Z,61.05
2017-04-07T11:13:34.484Z,60.77
2017-04-07T11:14:34.470Z,61.22
2017-04-07T11:15:34.453Z,61.12
2017-04-07T11:16:34.124Z,61.51
2017-04-07T11:17:34.411Z,61.6
2017-04-07T11:18:34.395Z,61.88
2017-04-07T11:19:34.379Z,61.69
2017-04-07T11:20:34.350Z,61.15
2017-04-07T11:21:34.335Z,60.86
2017-04-07T11:22:34.611Z,61.05
2017-04-07T11:23:34.548Z,60.58
2017-04-07T11:24:34.277Z,60.19
2017-04-07T11:25:34.253Z,59.81
2017-04-07T11:26:34.248Z,59.72
2017-04-07T11:27:35.019Z,59.94
2017-04-07T11:28:34.200Z,59.94
2017-04-07T11:29:34.174Z,59.43
2017-04-07T11:30:34.159Z,59.91
2017-04-07T11:31:34.140Z,59.52
2017-04-07T11:32:34.119Z,59.52
2017-04-07T11:33:34.101Z,59.62
2017-04-07T11:34:34.232Z,60.19
2017-04-07T11:35:34.069Z,60
2017-04-07T11:36:34.262Z,60.1
2017-04-07T11:37:34.023Z,61.02
2017-04-07T11:38:34.020Z,61.12
2017-04-07T11:39:33.992Z,60.96
2017-04-07T11:40:33.966Z,61.15
2017-04-07T11:41:33.950Z,60.93
2017-04-07T11:42:33.930Z,60.96
2017-04-07T11:43:33.911Z,61.25
2017-04-07T11:44:33.890Z,60.48
2017-04-07T11:45:33.869Z,59.72
2017-04-07T11:46:33.860Z,59.81
2017-04-07T11:47:33.830Z,60.13
2017-04-07T11:48:33.813Z,59.55
2017-04-07T11:49:33.796Z,58.88
2017-04-07T11:50:33.775Z,58.79
2017-04-07T11:51:33.454Z,58.69
2017-04-07T11:52:33.739Z,58.59
2017-04-07T11:53:33.727Z,58.31
2017-04-07T11:54:33.700Z,58.79
2017-04-07T11:55:33.676Z,58.98
2017-04-07T11:56:33.670Z,58.88
2017-04-07T11:57:33.642Z,59.45
2017-04-07T11:58:33.621Z,59.17
2017-04-07T11:59:33.601Z,59.17
2017-04-07T12:00:33.583Z,59.62
2017-04-07T12:01:33.566Z,59.43
2017-04-07T12:02:33.799Z,59.72
2017-04-07T12:03:33.530Z,60.1
2017-04-07T12:04:33.512Z,60.48
2017-04-07T12:05:33.491Z,60.77
2017-04-07T12:06:33.469Z,60.86
2017-04-07T12:07:33.446Z,60.77
2017-04-07T12:08:33.433Z,60.96
2017-04-07T12:09:33.413Z,60.86
2017-04-07T12:10:33.399Z,61.88
2017-04-07T12:11:33.377Z,61.6
2017-04-07T12:12:33.349Z,61.41
2017-04-07T12:13:33.335Z,62.27
2017-04-07T12:14:33.329Z,62.27
2017-04-07T12:15:33.304Z,61.98
2017-04-07T12:16:33.280Z,61.51
2017-04-07T12:17:33.264Z,61.88
2017-04-07T12:18:33.235Z,61.34
2017-04-07T12:19:33.220Z,61.34
2017-04-07T12:20:33.204Z,61.6
2017-04-07T12:21:33.177Z,60.86
2017-04-07T12:22:33.171Z,60.96
2017-04-07T12:23:33.142Z,60.29
2017-04-07T12:24:33.125Z,59.91
2017-04-07T12:25:33.116Z,60
2017-04-07T12:26:32.779Z,60.48
2017-04-07T12:27:32.759Z,60.58
2017-04-07T12:28:33.046Z,61.05
2017-04-07T12:29:33.037Z,60.67
2017-04-07T12:30:33.002Z,60.77
2017-04-07T12:31:33.053Z,60.77
2017-04-07T12:32:32.966Z,60.51
2017-04-07T12:33:32.948Z,60.41
2017-04-07T12:34:32.927Z,59.65
2017-04-07T12:35:32.818Z,59.27
2017-04-07T12:36:32.887Z,58.69
2017-04-07T12:37:32.873Z,58.72
2017-04-07T12:38:32.853Z,58.44
2017-04-07T12:39:32.836Z,58.24
2017-04-07T12:40:32.514Z,58.05
2017-04-07T12:41:32.797Z,58.53
2017-04-07T12:42:32.769Z,58.72
2017-04-07T12:43:32.761Z,57.95
2017-04-07T12:44:32.738Z,57.95
2017-04-07T12:45:32.720Z,58.15
2017-04-07T12:46:32.704Z,58.24
2017-04-07T12:47:32.690Z,57.5
2017-04-07T12:48:32.716Z,57.79
2017-04-07T12:49:32.639Z,57.76
2017-04-07T12:50:32.676Z,57.86
2017-04-07T12:51:32.611Z,57.86
2017-04-07T12:52:32.589Z,58.34
2017-04-07T12:53:32.571Z,57.67
2017-04-07T12:54:32.551Z,58.15